sensor_id;sensor_type;location;lat;lon;timestamp;temperature;humidity
54898;DHT22;40800;52.704;6.398;2024-01-11T00:00:34;-2.60;1.00
54898;DHT22;40800;52.704;6.398;2024-01-11T00:03:00;-2.60;1.00
54898;DHT22;40800;52.704;6.398;2024-01-11T00:05:25;-2.70;1.00
54898;DHT22;40800;52.704;6.398;2024-01-11T00:07:51;-2.70;1.00
54898;DHT22;40800;52.704;6.398;2024-01-11T00:10:17;-2.70;1.00
54898;DHT22;40800;52.704;6.398;2024-01-11T00:12:43;-2.70;1.00
54898;DHT22;40800;52.704;6.398;2024-01-11T00:15:08;-2.70;1.00
54898;DHT22;40800;52.704;6.398;2024-01-11T00:17:34;-2.70;1.00
54898;DHT22;40800;52.704;6.398;2024-01-11T00:20:00;-2.80;1.30
54898;DHT22;40800;52.704;6.398;2024-01-11T00:22:26;-2.80;21.00
54898;DHT22;40800;52.704;6.398;2024-01-11T00:24:51;-2.70;30.50
54898;DHT22;40800;52.704;6.398;2024-01-11T00:27:17;-2.80;25.40
54898;DHT22;40800;52.704;6.398;2024-01-11T00:29:42;-2.40;23.80
54898;DHT22;40800;52.704;6.398;2024-01-11T00:32:08;-2.80;61.20
54898;DHT22;40800;52.704;6.398;2024-01-11T00:34:33;-2.80;81.90
54898;DHT22;40800;52.704;6.398;2024-01-11T00:37:01;-2.50;99.90
54898;DHT22;40800;52.704;6.398;2024-01-11T00:39:27;-2.90;99.90
54898;DHT22;40800;52.704;6.398;2024-01-11T00:41:52;-2.90;99.90
54898;DHT22;40800;52.704;6.398;2024-01-11T00:44:18;-2.60;99.90
54898;DHT22;40800;52.704;6.398;2024-01-11T00:46:43;-2.20;99.90
54898;DHT22;40800;52.704;6.398;2024-01-11T00:49:09;-2.80;99.90
54898;DHT22;40800;52.704;6.398;2024-01-11T00:51:34;-2.80;99.90
54898;DHT22;40800;52.704;6.398;2024-01-11T00:54:00;-2.90;99.90
54898;DHT22;40800;52.704;6.398;2024-01-11T00:56:25;-2.90;99.90
54898;DHT22;40800;52.704;6.398;2024-01-11T00:58:52;-2.90;99.90
54898;DHT22;40800;52.704;6.398;2024-01-11T01:01:18;-2.90;99.90
54898;DHT22;40800;52.704;6.398;2024-01-11T01:03:43;-3.00;99.90
54898;DHT22;40800;52.704;6.398;2024-01-11T01:06:09;-3.00;99.90
54898;DHT22;40800;52.704;6.398;2024-01-11T01:08:35;-2.90;99.90
54898;DHT22;40800;52.704;6.398;2024-01-11T01:11:00;-2.40;99.90
54898;DHT22;40800;52.704;6.398;2024-01-11T01:13:26;-3.10;99.90
54898;DHT22;40800;52.704;6.398;2024-01-11T01:15:51;-3.10;99.90
54898;DHT22;40800;52.704;6.398;2024-01-11T01:18:17;-2.20;99.90
54898;DHT22;40800;52.704;6.398;2024-01-11T01:20:43;-3.10;99.90
54898;DHT22;40800;52.704;6.398;2024-01-11T01:23:08;-3.10;99.90
54898;DHT22;40800;52.704;6.398;2024-01-11T01:25:34;-2.60;99.90
54898;DHT22;40800;52.704;6.398;2024-01-11T01:28:00;-3.10;1.00
54898;DHT22;40800;52.704;6.398;2024-01-11T01:30:26;-2.70;1.00
54898;DHT22;40800;52.704;6.398;2024-01-11T01:32:52;-3.10;1.00
54898;DHT22;40800;52.704;6.398;2024-01-11T01:35:18;-2.80;1.00
54898;DHT22;40800;52.704;6.398;2024-01-11T01:37:43;-3.00;87.90
54898;DHT22;40800;52.704;6.398;2024-01-11T01:40:10;-3.00;1.00
54898;DHT22;40800;52.704;6.398;2024-01-11T01:42:36;-3.10;41.60
54898;DHT22;40800;52.704;6.398;2024-01-11T01:45:01;-3.00;93.90
54898;DHT22;40800;52.704;6.398;2024-01-11T01:47:27;-3.10;99.90
54898;DHT22;40800;52.704;6.398;2024-01-11T01:49:53;-3.10;99.90
54898;DHT22;40800;52.704;6.398;2024-01-11T01:52:20;-3.00;99.90
54898;DHT22;40800;52.704;6.398;2024-01-11T01:54:47;-2.10;99.90
54898;DHT22;40800;52.704;6.398;2024-01-11T01:57:14;-3.10;99.90
54898;DHT22;40800;52.704;6.398;2024-01-11T01:59:41;-3.20;99.90
54898;DHT22;40800;52.704;6.398;2024-01-11T02:02:09;-3.10;99.90
54898;DHT22;40800;52.704;6.398;2024-01-11T02:04:36;-3.10;99.90
54898;DHT22;40800;52.704;6.398;2024-01-11T02:07:01;-3.10;99.90
54898;DHT22;40800;52.704;6.398;2024-01-11T02:09:28;-3.10;99.90
54898;DHT22;40800;52.704;6.398;2024-01-11T02:11:54;-3.00;99.90
54898;DHT22;40800;52.704;6.398;2024-01-11T02:14:20;-3.00;99.90
54898;DHT22;40800;52.704;6.398;2024-01-11T02:16:46;-3.00;99.90
54898;DHT22;40800;52.704;6.398;2024-01-11T02:19:13;-3.00;1.00
54898;DHT22;40800;52.704;6.398;2024-01-11T02:21:42;-3.10;1.00
54898;DHT22;40800;52.704;6.398;2024-01-11T02:24:09;-2.70;1.00
54898;DHT22;40800;52.704;6.398;2024-01-11T02:26:34;-3.20;99.90
54898;DHT22;40800;52.704;6.398;2024-01-11T02:29:00;-2.30;99.90
54898;DHT22;40800;52.704;6.398;2024-01-11T02:31:26;-3.20;99.90
54898;DHT22;40800;52.704;6.398;2024-01-11T02:33:52;-2.40;99.90
54898;DHT22;40800;52.704;6.398;2024-01-11T02:36:18;-3.30;99.90
54898;DHT22;40800;52.704;6.398;2024-01-11T02:38:45;-3.40;99.90
54898;DHT22;40800;52.704;6.398;2024-01-11T02:41:11;-3.50;99.90
54898;DHT22;40800;52.704;6.398;2024-01-11T02:43:37;-3.50;99.90
54898;DHT22;40800;52.704;6.398;2024-01-11T02:46:03;-3.50;99.90
54898;DHT22;40800;52.704;6.398;2024-01-11T02:48:29;-3.50;99.90
54898;DHT22;40800;52.704;6.398;2024-01-11T02:50:56;-3.60;99.90
54898;DHT22;40800;52.704;6.398;2024-01-11T02:53:23;-3.60;99.90
54898;DHT22;40800;52.704;6.398;2024-01-11T02:55:49;-3.60;99.90
54898;DHT22;40800;52.704;6.398;2024-01-11T02:58:15;-2.80;1.00
54898;DHT22;40800;52.704;6.398;2024-01-11T03:00:40;-2.70;21.60
54898;DHT22;40800;52.704;6.398;2024-01-11T03:03:06;-3.40;99.90
54898;DHT22;40800;52.704;6.398;2024-01-11T03:05:32;-3.40;99.90
54898;DHT22;40800;52.704;6.398;2024-01-11T03:07:57;-3.40;99.90
54898;DHT22;40800;52.704;6.398;2024-01-11T03:10:23;-3.30;99.90
54898;DHT22;40800;52.704;6.398;2024-01-11T03:12:49;-3.20;1.00
54898;DHT22;40800;52.704;6.398;2024-01-11T03:15:15;-3.10;1.00
54898;DHT22;40800;52.704;6.398;2024-01-11T03:17:41;-2.40;2.20
54898;DHT22;40800;52.704;6.398;2024-01-11T03:20:07;-3.10;1.00
54898;DHT22;40800;52.704;6.398;2024-01-11T03:22:33;-3.10;1.00
54898;DHT22;40800;52.704;6.398;2024-01-11T03:24:59;-2.30;1.00
54898;DHT22;40800;52.704;6.398;2024-01-11T03:27:25;-2.50;1.00
54898;DHT22;40800;52.704;6.398;2024-01-11T03:29:50;-3.10;1.00
54898;DHT22;40800;52.704;6.398;2024-01-11T03:32:16;-3.10;1.00
54898;DHT22;40800;52.704;6.398;2024-01-11T03:34:42;-3.20;1.00
54898;DHT22;40800;52.704;6.398;2024-01-11T03:37:07;-2.30;1.00
54898;DHT22;40800;52.704;6.398;2024-01-11T03:39:34;-3.20;1.00
54898;DHT22;40800;52.704;6.398;2024-01-11T03:42:00;-3.20;1.00
54898;DHT22;40800;52.704;6.398;2024-01-11T03:44:25;-2.50;1.00
54898;DHT22;40800;52.704;6.398;2024-01-11T03:46:51;-2.40;1.00
54898;DHT22;40800;52.704;6.398;2024-01-11T03:49:17;-3.30;1.00
54898;DHT22;40800;52.704;6.398;2024-01-11T03:51:43;-3.30;1.00
54898;DHT22;40800;52.704;6.398;2024-01-11T03:54:09;-3.30;1.00
54898;DHT22;40800;52.704;6.398;2024-01-11T03:56:38;-3.30;1.00
54898;DHT22;40800;52.704;6.398;2024-01-11T03:59:05;-3.30;1.00
54898;DHT22;40800;52.704;6.398;2024-01-11T04:01:32;-3.20;1.00
54898;DHT22;40800;52.704;6.398;2024-01-11T04:03:58;-3.20;1.00
54898;DHT22;40800;52.704;6.398;2024-01-11T04:06:24;-3.30;1.00
54898;DHT22;40800;52.704;6.398;2024-01-11T04:08:50;-3.30;1.00
54898;DHT22;40800;52.704;6.398;2024-01-11T04:11:16;-3.30;1.00
54898;DHT22;40800;52.704;6.398;2024-01-11T04:13:43;-3.30;1.00
54898;DHT22;40800;52.704;6.398;2024-01-11T04:16:08;-3.30;1.00
54898;DHT22;40800;52.704;6.398;2024-01-11T04:18:34;-3.30;1.00
54898;DHT22;40800;52.704;6.398;2024-01-11T04:20:59;-3.20;1.00
54898;DHT22;40800;52.704;6.398;2024-01-11T04:23:25;-3.40;1.00
54898;DHT22;40800;52.704;6.398;2024-01-11T04:25:51;-3.50;1.00
54898;DHT22;40800;52.704;6.398;2024-01-11T04:28:19;-3.50;1.00
54898;DHT22;40800;52.704;6.398;2024-01-11T04:30:45;-3.40;99.90
54898;DHT22;40800;52.704;6.398;2024-01-11T04:33:10;-3.70;99.90
54898;DHT22;40800;52.704;6.398;2024-01-11T04:35:36;-2.70;99.90
54898;DHT22;40800;52.704;6.398;2024-01-11T04:38:02;-3.40;1.00
54898;DHT22;40800;52.704;6.398;2024-01-11T04:40:28;-3.50;10.30
54898;DHT22;40800;52.704;6.398;2024-01-11T04:42:54;-3.50;95.60
54898;DHT22;40800;52.704;6.398;2024-01-11T04:45:19;-3.40;99.90
54898;DHT22;40800;52.704;6.398;2024-01-11T04:47:45;-2.30;99.90
54898;DHT22;40800;52.704;6.398;2024-01-11T04:50:10;-3.30;99.90
54898;DHT22;40800;52.704;6.398;2024-01-11T04:52:36;-3.30;99.90
54898;DHT22;40800;52.704;6.398;2024-01-11T04:55:02;-2.40;99.90
54898;DHT22;40800;52.704;6.398;2024-01-11T04:57:28;-3.40;99.90
54898;DHT22;40800;52.704;6.398;2024-01-11T04:59:53;-3.50;32.00
54898;DHT22;40800;52.704;6.398;2024-01-11T05:02:20;-3.60;1.00
54898;DHT22;40800;52.704;6.398;2024-01-11T05:04:47;-3.80;1.00
54898;DHT22;40800;52.704;6.398;2024-01-11T05:07:13;-3.70;1.00
54898;DHT22;40800;52.704;6.398;2024-01-11T05:09:38;-3.70;1.00
54898;DHT22;40800;52.704;6.398;2024-01-11T05:12:04;-3.60;18.50
54898;DHT22;40800;52.704;6.398;2024-01-11T05:14:30;-3.60;76.30
54898;DHT22;40800;52.704;6.398;2024-01-11T05:16:55;-3.50;99.90
54898;DHT22;40800;52.704;6.398;2024-01-11T05:19:21;-3.60;99.90
54898;DHT22;40800;52.704;6.398;2024-01-11T05:21:47;-3.50;99.90
54898;DHT22;40800;52.704;6.398;2024-01-11T05:24:13;-3.60;99.90
54898;DHT22;40800;52.704;6.398;2024-01-11T05:26:38;-3.40;99.90
54898;DHT22;40800;52.704;6.398;2024-01-11T05:29:04;-3.50;99.90
54898;DHT22;40800;52.704;6.398;2024-01-11T05:31:30;-3.50;99.90
54898;DHT22;40800;52.704;6.398;2024-01-11T05:33:55;-3.40;99.90
54898;DHT22;40800;52.704;6.398;2024-01-11T05:36:21;-3.50;99.90
54898;DHT22;40800;52.704;6.398;2024-01-11T05:38:47;-3.40;99.90
54898;DHT22;40800;52.704;6.398;2024-01-11T05:41:13;-3.40;99.90
54898;DHT22;40800;52.704;6.398;2024-01-11T05:43:39;-3.40;99.90
54898;DHT22;40800;52.704;6.398;2024-01-11T05:46:04;-3.40;99.90
54898;DHT22;40800;52.704;6.398;2024-01-11T05:48:30;-3.40;99.90
54898;DHT22;40800;52.704;6.398;2024-01-11T05:50:55;-3.50;99.90
54898;DHT22;40800;52.704;6.398;2024-01-11T05:53:21;-2.50;99.90
54898;DHT22;40800;52.704;6.398;2024-01-11T05:55:48;-3.50;99.90
54898;DHT22;40800;52.704;6.398;2024-01-11T05:58:13;-3.60;99.90
54898;DHT22;40800;52.704;6.398;2024-01-11T06:00:39;-3.60;99.90
54898;DHT22;40800;52.704;6.398;2024-01-11T06:03:05;-3.60;99.90
54898;DHT22;40800;52.704;6.398;2024-01-11T06:05:31;-3.60;99.90
54898;DHT22;40800;52.704;6.398;2024-01-11T06:07:57;-3.80;99.90
54898;DHT22;40800;52.704;6.398;2024-01-11T06:10:22;-3.10;99.90
54898;DHT22;40800;52.704;6.398;2024-01-11T06:12:48;-3.20;99.90
54898;DHT22;40800;52.704;6.398;2024-01-11T06:15:13;-3.60;1.00
54898;DHT22;40800;52.704;6.398;2024-01-11T06:17:39;-3.50;1.00
54898;DHT22;40800;52.704;6.398;2024-01-11T06:20:05;-3.50;1.00
54898;DHT22;40800;52.704;6.398;2024-01-11T06:22:30;-3.50;1.00
54898;DHT22;40800;52.704;6.398;2024-01-11T06:24:56;-3.50;1.00
54898;DHT22;40800;52.704;6.398;2024-01-11T06:27:22;-3.30;1.00
54898;DHT22;40800;52.704;6.398;2024-01-11T06:29:48;-2.60;1.00
54898;DHT22;40800;52.704;6.398;2024-01-11T06:32:13;-3.40;1.00
54898;DHT22;40800;52.704;6.398;2024-01-11T06:34:39;-3.30;1.60
54898;DHT22;40800;52.704;6.398;2024-01-11T06:37:07;-2.30;29.10
54898;DHT22;40800;52.704;6.398;2024-01-11T06:39:33;-2.50;63.10
54898;DHT22;40800;52.704;6.398;2024-01-11T06:41:58;-3.20;94.10
54898;DHT22;40800;52.704;6.398;2024-01-11T06:44:24;-3.10;99.90
54898;DHT22;40800;52.704;6.398;2024-01-11T06:46:50;-3.00;99.90
54898;DHT22;40800;52.704;6.398;2024-01-11T06:49:16;-2.90;99.90
54898;DHT22;40800;52.704;6.398;2024-01-11T06:51:41;-2.90;99.90
54898;DHT22;40800;52.704;6.398;2024-01-11T06:54:08;-2.80;99.90
54898;DHT22;40800;52.704;6.398;2024-01-11T06:56:34;-2.80;99.90
54898;DHT22;40800;52.704;6.398;2024-01-11T06:58:59;-2.70;99.90
54898;DHT22;40800;52.704;6.398;2024-01-11T07:01:25;-2.70;99.90
54898;DHT22;40800;52.704;6.398;2024-01-11T07:03:51;-2.70;99.90
54898;DHT22;40800;52.704;6.398;2024-01-11T07:06:17;-2.70;99.90
54898;DHT22;40800;52.704;6.398;2024-01-11T07:08:42;-2.50;1.00
54898;DHT22;40800;52.704;6.398;2024-01-11T07:11:08;-2.40;1.00
54898;DHT22;40800;52.704;6.398;2024-01-11T07:13:33;-2.40;1.00
54898;DHT22;40800;52.704;6.398;2024-01-11T07:15:59;-2.30;1.00
54898;DHT22;40800;52.704;6.398;2024-01-11T07:18:25;-2.30;1.00
54898;DHT22;40800;52.704;6.398;2024-01-11T07:20:52;-2.20;11.70
54898;DHT22;40800;52.704;6.398;2024-01-11T07:23:18;-1.70;20.30
54898;DHT22;40800;52.704;6.398;2024-01-11T07:25:44;-2.20;29.20
54898;DHT22;40800;52.704;6.398;2024-01-11T07:28:09;-2.10;41.00
54898;DHT22;40800;52.704;6.398;2024-01-11T07:30:35;-2.20;46.70
54898;DHT22;40800;52.704;6.398;2024-01-11T07:33:01;-2.10;48.00
54898;DHT22;40800;52.704;6.398;2024-01-11T07:35:27;-2.10;48.80
54898;DHT22;40800;52.704;6.398;2024-01-11T07:37:53;-1.30;49.10
54898;DHT22;40800;52.704;6.398;2024-01-11T07:40:19;-2.00;45.00
54898;DHT22;40800;52.704;6.398;2024-01-11T07:42:45;-2.00;46.70
54898;DHT22;40800;52.704;6.398;2024-01-11T07:45:11;-1.90;51.20
54898;DHT22;40800;52.704;6.398;2024-01-11T07:47:37;-1.90;62.50
54898;DHT22;40800;52.704;6.398;2024-01-11T07:50:07;-1.90;74.00
54898;DHT22;40800;52.704;6.398;2024-01-11T07:52:35;-1.80;88.60
54898;DHT22;40800;52.704;6.398;2024-01-11T07:55:00;-1.80;94.80
54898;DHT22;40800;52.704;6.398;2024-01-11T07:57:32;-1.00;98.30
54898;DHT22;40800;52.704;6.398;2024-01-11T07:59:58;-1.70;99.90
54898;DHT22;40800;52.704;6.398;2024-01-11T08:02:25;-1.70;99.90
54898;DHT22;40800;52.704;6.398;2024-01-11T08:04:51;-1.30;99.90
54898;DHT22;40800;52.704;6.398;2024-01-11T08:07:16;-1.60;99.90
54898;DHT22;40800;52.704;6.398;2024-01-11T08:09:42;-1.60;99.90
54898;DHT22;40800;52.704;6.398;2024-01-11T08:12:11;-1.50;99.90
54898;DHT22;40800;52.704;6.398;2024-01-11T08:14:36;-1.50;99.90
54898;DHT22;40800;52.704;6.398;2024-01-11T08:17:02;-1.50;99.90
54898;DHT22;40800;52.704;6.398;2024-01-11T08:19:32;-1.40;99.90
54898;DHT22;40800;52.704;6.398;2024-01-11T08:21:58;-1.40;99.90
54898;DHT22;40800;52.704;6.398;2024-01-11T08:24:24;-1.40;99.90
54898;DHT22;40800;52.704;6.398;2024-01-11T08:26:50;-0.40;99.90
54898;DHT22;40800;52.704;6.398;2024-01-11T08:29:16;-1.30;99.90
54898;DHT22;40800;52.704;6.398;2024-01-11T08:31:41;-1.30;99.90
54898;DHT22;40800;52.704;6.398;2024-01-11T08:34:09;-1.30;99.90
54898;DHT22;40800;52.704;6.398;2024-01-11T08:36:36;-1.30;99.90
54898;DHT22;40800;52.704;6.398;2024-01-11T08:39:04;-1.20;99.90
54898;DHT22;40800;52.704;6.398;2024-01-11T08:41:34;-1.10;99.90
54898;DHT22;40800;52.704;6.398;2024-01-11T08:44:06;-1.20;99.90
54898;DHT22;40800;52.704;6.398;2024-01-11T08:46:31;-1.10;99.90
54898;DHT22;40800;52.704;6.398;2024-01-11T08:48:59;-1.10;99.90
54898;DHT22;40800;52.704;6.398;2024-01-11T08:51:25;-1.10;99.90
54898;DHT22;40800;52.704;6.398;2024-01-11T08:53:51;-1.00;99.90
54898;DHT22;40800;52.704;6.398;2024-01-11T08:56:21;-1.00;99.90
54898;DHT22;40800;52.704;6.398;2024-01-11T08:58:46;-0.90;99.90
54898;DHT22;40800;52.704;6.398;2024-01-11T09:01:13;-0.90;99.90
54898;DHT22;40800;52.704;6.398;2024-01-11T09:03:39;-0.90;99.90
54898;DHT22;40800;52.704;6.398;2024-01-11T09:06:05;-0.80;99.90
54898;DHT22;40800;52.704;6.398;2024-01-11T09:08:31;-0.70;99.90
54898;DHT22;40800;52.704;6.398;2024-01-11T09:10:57;-0.70;99.90
54898;DHT22;40800;52.704;6.398;2024-01-11T09:13:25;-0.70;99.90
54898;DHT22;40800;52.704;6.398;2024-01-11T09:15:52;-0.60;99.90
54898;DHT22;40800;52.704;6.398;2024-01-11T09:18:18;-0.60;99.90
54898;DHT22;40800;52.704;6.398;2024-01-11T09:20:44;-0.60;99.90
54898;DHT22;40800;52.704;6.398;2024-01-11T09:23:09;-0.60;99.90
54898;DHT22;40800;52.704;6.398;2024-01-11T09:25:35;-0.50;99.90
54898;DHT22;40800;52.704;6.398;2024-01-11T09:28:01;-0.50;99.90
54898;DHT22;40800;52.704;6.398;2024-01-11T09:30:26;-0.40;99.90
54898;DHT22;40800;52.704;6.398;2024-01-11T09:32:52;-0.40;99.90
54898;DHT22;40800;52.704;6.398;2024-01-11T09:35:18;-0.40;99.90
54898;DHT22;40800;52.704;6.398;2024-01-11T09:37:43;-0.40;99.90
54898;DHT22;40800;52.704;6.398;2024-01-11T09:40:11;-0.30;99.90
54898;DHT22;40800;52.704;6.398;2024-01-11T09:42:37;-0.20;99.90
54898;DHT22;40800;52.704;6.398;2024-01-11T09:45:08;-0.20;99.90
54898;DHT22;40800;52.704;6.398;2024-01-11T09:47:36;-0.10;99.90
54898;DHT22;40800;52.704;6.398;2024-01-11T09:50:05;-0.10;99.90
54898;DHT22;40800;52.704;6.398;2024-01-11T09:52:31;0.00;99.90
54898;DHT22;40800;52.704;6.398;2024-01-11T09:55:01;0.00;99.90
54898;DHT22;40800;52.704;6.398;2024-01-11T09:57:29;0.10;99.90
54898;DHT22;40800;52.704;6.398;2024-01-11T09:59:56;0.10;99.90
54898;DHT22;40800;52.704;6.398;2024-01-11T10:02:25;0.20;99.90
54898;DHT22;40800;52.704;6.398;2024-01-11T10:04:55;0.20;99.90
54898;DHT22;40800;52.704;6.398;2024-01-11T10:07:24;0.20;99.90
54898;DHT22;40800;52.704;6.398;2024-01-11T10:09:50;0.30;99.90
54898;DHT22;40800;52.704;6.398;2024-01-11T10:12:20;0.40;99.90
54898;DHT22;40800;52.704;6.398;2024-01-11T10:14:48;0.50;99.90
54898;DHT22;40800;52.704;6.398;2024-01-11T10:17:14;0.50;99.90
54898;DHT22;40800;52.704;6.398;2024-01-11T10:19:40;0.50;99.90
54898;DHT22;40800;52.704;6.398;2024-01-11T10:22:05;0.60;99.90
54898;DHT22;40800;52.704;6.398;2024-01-11T10:24:32;0.60;99.90
54898;DHT22;40800;52.704;6.398;2024-01-11T10:26:58;0.60;99.90
54898;DHT22;40800;52.704;6.398;2024-01-11T10:29:33;0.60;99.90
54898;DHT22;40800;52.704;6.398;2024-01-11T10:32:00;0.70;99.90
54898;DHT22;40800;52.704;6.398;2024-01-11T10:34:26;0.80;99.90
54898;DHT22;40800;52.704;6.398;2024-01-11T10:36:52;0.80;99.90
54898;DHT22;40800;52.704;6.398;2024-01-11T10:39:17;0.80;99.90
54898;DHT22;40800;52.704;6.398;2024-01-11T10:41:51;0.90;99.90
54898;DHT22;40800;52.704;6.398;2024-01-11T10:44:20;0.90;99.90
54898;DHT22;40800;52.704;6.398;2024-01-11T10:46:50;0.90;99.90
54898;DHT22;40800;52.704;6.398;2024-01-11T10:49:17;1.00;99.90
54898;DHT22;40800;52.704;6.398;2024-01-11T10:51:55;1.10;99.90
54898;DHT22;40800;52.704;6.398;2024-01-11T10:54:23;1.10;99.90
54898;DHT22;40800;52.704;6.398;2024-01-11T10:56:50;1.30;99.90
54898;DHT22;40800;52.704;6.398;2024-01-11T10:59:16;1.30;99.90
54898;DHT22;40800;52.704;6.398;2024-01-11T11:01:44;1.30;99.90
54898;DHT22;40800;52.704;6.398;2024-01-11T11:04:10;1.40;99.90
54898;DHT22;40800;52.704;6.398;2024-01-11T11:06:38;1.50;99.90
54898;DHT22;40800;52.704;6.398;2024-01-11T11:09:04;1.50;99.90
54898;DHT22;40800;52.704;6.398;2024-01-11T11:11:31;1.50;99.90
54898;DHT22;40800;52.704;6.398;2024-01-11T11:14:00;1.60;99.90
54898;DHT22;40800;52.704;6.398;2024-01-11T11:16:26;1.60;99.90
54898;DHT22;40800;52.704;6.398;2024-01-11T11:18:53;1.60;99.90
54898;DHT22;40800;52.704;6.398;2024-01-11T11:21:20;1.70;99.90
54898;DHT22;40800;52.704;6.398;2024-01-11T11:23:46;1.70;99.90
54898;DHT22;40800;52.704;6.398;2024-01-11T11:26:18;1.70;99.90
54898;DHT22;40800;52.704;6.398;2024-01-11T11:28:44;1.80;99.90
54898;DHT22;40800;52.704;6.398;2024-01-11T11:31:12;1.80;99.90
54898;DHT22;40800;52.704;6.398;2024-01-11T11:33:38;1.80;99.90
54898;DHT22;40800;52.704;6.398;2024-01-11T11:36:04;1.80;99.90
54898;DHT22;40800;52.704;6.398;2024-01-11T11:38:30;1.90;99.90
54898;DHT22;40800;52.704;6.398;2024-01-11T11:40:58;1.90;99.90
54898;DHT22;40800;52.704;6.398;2024-01-11T11:43:26;2.00;99.90
54898;DHT22;40800;52.704;6.398;2024-01-11T11:45:53;1.90;99.90
54898;DHT22;40800;52.704;6.398;2024-01-11T11:51:12;2.00;99.90
54898;DHT22;40800;52.704;6.398;2024-01-11T11:53:39;2.00;99.90
54898;DHT22;40800;52.704;6.398;2024-01-11T11:56:07;2.10;99.90
54898;DHT22;40800;52.704;6.398;2024-01-11T11:58:33;2.10;99.90
54898;DHT22;40800;52.704;6.398;2024-01-11T12:01:00;2.10;99.90
54898;DHT22;40800;52.704;6.398;2024-01-11T12:03:29;2.10;99.90
54898;DHT22;40800;52.704;6.398;2024-01-11T12:05:59;2.10;99.90
54898;DHT22;40800;52.704;6.398;2024-01-11T12:08:26;2.20;99.90
54898;DHT22;40800;52.704;6.398;2024-01-11T12:10:52;2.30;99.90
54898;DHT22;40800;52.704;6.398;2024-01-11T12:13:18;2.30;99.90
54898;DHT22;40800;52.704;6.398;2024-01-11T12:15:44;2.50;99.90
54898;DHT22;40800;52.704;6.398;2024-01-11T12:18:10;2.50;99.90
54898;DHT22;40800;52.704;6.398;2024-01-11T12:20:36;2.40;99.90
54898;DHT22;40800;52.704;6.398;2024-01-11T12:23:02;2.40;99.90
54898;DHT22;40800;52.704;6.398;2024-01-11T12:25:28;2.40;99.90
54898;DHT22;40800;52.704;6.398;2024-01-11T12:27:54;2.50;99.90
54898;DHT22;40800;52.704;6.398;2024-01-11T12:30:23;2.50;99.90
54898;DHT22;40800;52.704;6.398;2024-01-11T12:32:50;2.50;99.90
54898;DHT22;40800;52.704;6.398;2024-01-11T12:35:16;2.60;99.90
54898;DHT22;40800;52.704;6.398;2024-01-11T12:37:53;2.60;99.90
54898;DHT22;40800;52.704;6.398;2024-01-11T12:40:19;2.70;99.90
54898;DHT22;40800;52.704;6.398;2024-01-11T12:42:44;2.60;99.90
54898;DHT22;40800;52.704;6.398;2024-01-11T12:45:10;2.70;99.90
54898;DHT22;40800;52.704;6.398;2024-01-11T12:47:35;2.80;99.90
54898;DHT22;40800;52.704;6.398;2024-01-11T12:50:03;2.80;99.90
54898;DHT22;40800;52.704;6.398;2024-01-11T12:52:28;2.80;99.90
54898;DHT22;40800;52.704;6.398;2024-01-11T12:54:55;2.70;99.90
54898;DHT22;40800;52.704;6.398;2024-01-11T12:57:24;2.80;99.90
54898;DHT22;40800;52.704;6.398;2024-01-11T12:59:50;2.70;99.90
54898;DHT22;40800;52.704;6.398;2024-01-11T13:02:16;2.80;99.90
54898;DHT22;40800;52.704;6.398;2024-01-11T13:04:45;2.80;99.90
54898;DHT22;40800;52.704;6.398;2024-01-11T13:07:12;2.80;99.90
54898;DHT22;40800;52.704;6.398;2024-01-11T13:09:41;2.80;99.90
54898;DHT22;40800;52.704;6.398;2024-01-11T13:12:07;2.80;99.90
54898;DHT22;40800;52.704;6.398;2024-01-11T13:14:32;2.90;99.90
54898;DHT22;40800;52.704;6.398;2024-01-11T13:16:58;2.90;99.90
54898;DHT22;40800;52.704;6.398;2024-01-11T13:19:24;2.90;99.90
54898;DHT22;40800;52.704;6.398;2024-01-11T13:21:50;3.00;99.90
54898;DHT22;40800;52.704;6.398;2024-01-11T13:24:15;2.90;99.90
54898;DHT22;40800;52.704;6.398;2024-01-11T13:26:41;2.90;99.90
54898;DHT22;40800;52.704;6.398;2024-01-11T13:29:06;2.90;99.90
54898;DHT22;40800;52.704;6.398;2024-01-11T13:31:32;2.90;99.90
54898;DHT22;40800;52.704;6.398;2024-01-11T13:33:58;3.00;99.90
54898;DHT22;40800;52.704;6.398;2024-01-11T13:36:24;3.00;99.90
54898;DHT22;40800;52.704;6.398;2024-01-11T13:38:51;3.00;99.90
54898;DHT22;40800;52.704;6.398;2024-01-11T13:41:16;2.90;99.90
54898;DHT22;40800;52.704;6.398;2024-01-11T13:43:45;3.00;99.90
54898;DHT22;40800;52.704;6.398;2024-01-11T13:46:11;3.00;99.90
54898;DHT22;40800;52.704;6.398;2024-01-11T13:48:39;3.10;99.90
54898;DHT22;40800;52.704;6.398;2024-01-11T13:51:05;3.00;99.90
54898;DHT22;40800;52.704;6.398;2024-01-11T13:53:30;3.10;99.90
54898;DHT22;40800;52.704;6.398;2024-01-11T13:55:56;3.00;99.90
54898;DHT22;40800;52.704;6.398;2024-01-11T13:58:22;3.00;99.90
54898;DHT22;40800;52.704;6.398;2024-01-11T14:00:48;3.00;99.90
54898;DHT22;40800;52.704;6.398;2024-01-11T14:03:14;3.00;99.90
54898;DHT22;40800;52.704;6.398;2024-01-11T14:05:39;3.00;99.90
54898;DHT22;40800;52.704;6.398;2024-01-11T14:08:05;3.10;99.90
54898;DHT22;40800;52.704;6.398;2024-01-11T14:10:33;3.10;99.90
54898;DHT22;40800;52.704;6.398;2024-01-11T14:13:02;3.20;99.90
54898;DHT22;40800;52.704;6.398;2024-01-11T14:15:28;3.10;99.90
54898;DHT22;40800;52.704;6.398;2024-01-11T14:17:54;3.20;99.90
54898;DHT22;40800;52.704;6.398;2024-01-11T14:20:20;3.20;99.90
54898;DHT22;40800;52.704;6.398;2024-01-11T14:22:46;3.20;99.90
54898;DHT22;40800;52.704;6.398;2024-01-11T14:25:15;3.20;99.90
54898;DHT22;40800;52.704;6.398;2024-01-11T14:27:41;3.10;99.90
54898;DHT22;40800;52.704;6.398;2024-01-11T14:30:07;3.20;99.90
54898;DHT22;40800;52.704;6.398;2024-01-11T14:32:33;3.10;99.90
54898;DHT22;40800;52.704;6.398;2024-01-11T14:34:58;3.10;99.90
54898;DHT22;40800;52.704;6.398;2024-01-11T14:37:29;3.20;99.90
54898;DHT22;40800;52.704;6.398;2024-01-11T14:39:55;3.10;99.90
54898;DHT22;40800;52.704;6.398;2024-01-11T14:42:20;3.10;99.90
54898;DHT22;40800;52.704;6.398;2024-01-11T14:44:46;3.20;99.90
54898;DHT22;40800;52.704;6.398;2024-01-11T14:47:11;3.10;99.90
54898;DHT22;40800;52.704;6.398;2024-01-11T14:49:37;3.20;99.90
54898;DHT22;40800;52.704;6.398;2024-01-11T14:52:02;3.10;99.90
54898;DHT22;40800;52.704;6.398;2024-01-11T14:54:28;3.00;99.90
54898;DHT22;40800;52.704;6.398;2024-01-11T14:56:54;3.10;99.90
54898;DHT22;40800;52.704;6.398;2024-01-11T14:59:19;3.10;99.90
54898;DHT22;40800;52.704;6.398;2024-01-11T15:01:45;3.10;99.90
54898;DHT22;40800;52.704;6.398;2024-01-11T15:04:11;3.10;99.90
54898;DHT22;40800;52.704;6.398;2024-01-11T15:06:37;3.10;99.90
54898;DHT22;40800;52.704;6.398;2024-01-11T15:09:02;3.10;99.90
54898;DHT22;40800;52.704;6.398;2024-01-11T15:11:28;3.00;99.90
54898;DHT22;40800;52.704;6.398;2024-01-11T15:13:54;3.10;99.90
54898;DHT22;40800;52.704;6.398;2024-01-11T15:16:20;3.10;99.90
54898;DHT22;40800;52.704;6.398;2024-01-11T15:18:46;3.10;99.90
54898;DHT22;40800;52.704;6.398;2024-01-11T15:21:12;3.10;99.90
54898;DHT22;40800;52.704;6.398;2024-01-11T15:23:37;3.00;99.90
54898;DHT22;40800;52.704;6.398;2024-01-11T15:26:03;3.00;99.90
54898;DHT22;40800;52.704;6.398;2024-01-11T15:28:29;3.10;99.90
54898;DHT22;40800;52.704;6.398;2024-01-11T15:30:54;3.00;99.90
54898;DHT22;40800;52.704;6.398;2024-01-11T15:33:20;3.20;99.90
54898;DHT22;40800;52.704;6.398;2024-01-11T15:35:45;3.10;99.90